createdAt,value
2018-12-03T00:00:50.572Z,992.88
2018-12-03T00:01:50.556Z,992.81
2018-12-03T00:02:50.550Z,992.77
2018-12-03T00:03:50.526Z,992.81
2018-12-03T00:04:50.508Z,992.76
2018-12-03T00:05:50.495Z,992.76
2018-12-03T00:06:50.485Z,992.72
2018-12-03T00:07:50.454Z,992.70
2018-12-03T00:08:50.439Z,992.66
2018-12-03T00:09:50.421Z,992.63
2018-12-03T00:10:50.415Z,992.62
2018-12-03T00:11:50.395Z,992.61
2018-12-03T00:12:50.371Z,992.61
2018-12-03T00:13:50.355Z,992.61
2018-12-03T00:14:50.340Z,992.60
2018-12-03T00:15:50.323Z,992.60
2018-12-03T00:16:50.307Z,992.64
2018-12-03T00:17:50.287Z,992.62
2018-12-03T00:18:50.269Z,992.63
2018-12-03T00:19:50.254Z,992.62
2018-12-03T00:20:50.240Z,992.63
2018-12-03T00:21:50.223Z,992.59
2018-12-03T00:22:50.206Z,992.56
2018-12-03T00:23:50.186Z,992.59
2018-12-03T00:24:50.181Z,992.57
2018-12-03T00:25:50.154Z,992.57
2018-12-03T00:26:50.138Z,992.51
2018-12-03T00:27:50.119Z,992.53
2018-12-03T00:28:50.110Z,992.50
2018-12-03T00:29:50.088Z,992.50
2018-12-03T00:30:50.070Z,992.49
2018-12-03T00:31:50.055Z,992.45
2018-12-03T00:32:50.037Z,992.45
2018-12-03T00:33:50.021Z,992.42
2018-12-03T00:34:50.002Z,992.41
2018-12-03T00:35:49.987Z,992.41
2018-12-03T00:36:49.966Z,992.42
2018-12-03T00:37:49.948Z,992.43
2018-12-03T00:38:49.931Z,992.43
2018-12-03T00:39:49.914Z,992.42
2018-12-03T00:40:49.899Z,992.45
2018-12-03T00:41:49.885Z,992.45
2018-12-03T00:42:49.863Z,992.48
2018-12-03T00:43:49.847Z,992.45
2018-12-03T00:44:49.833Z,992.49
2018-12-03T00:45:49.815Z,992.50
2018-12-03T00:46:49.802Z,992.51
2018-12-03T00:47:49.782Z,992.47
2018-12-03T00:48:49.765Z,992.49
2018-12-03T00:49:49.750Z,992.53
2018-12-03T00:50:49.731Z,992.47
2018-12-03T00:51:49.721Z,992.47
2018-12-03T00:52:49.697Z,992.47
2018-12-03T00:53:49.689Z,992.52
2018-12-03T00:54:49.666Z,992.54
2018-12-03T00:55:49.650Z,992.55
2018-12-03T00:56:49.629Z,992.59
2018-12-03T00:57:49.616Z,992.60
2018-12-03T00:58:49.594Z,992.52
2018-12-03T00:59:49.578Z,992.61
2018-12-03T01:00:49.560Z,992.58
2018-12-03T01:01:49.545Z,992.58
2018-12-03T01:02:49.528Z,992.58
2018-12-03T01:03:49.519Z,992.53
2018-12-03T01:04:49.497Z,992.51
2018-12-03T01:05:49.479Z,992.50
2018-12-03T01:06:49.460Z,992.54
2018-12-03T01:07:49.442Z,992.58
2018-12-03T01:08:49.425Z,992.55
2018-12-03T01:09:49.409Z,992.59
2018-12-03T01:10:49.393Z,992.64
2018-12-03T01:11:49.378Z,992.71
2018-12-03T01:12:49.360Z,992.78
2018-12-03T01:13:49.342Z,992.71
2018-12-03T01:14:49.330Z,992.68
2018-12-03T01:15:49.309Z,992.55
2018-12-03T01:16:49.293Z,992.53
2018-12-03T01:17:49.279Z,992.48
2018-12-03T01:18:49.258Z,992.57
2018-12-03T01:19:49.245Z,992.58
2018-12-03T01:20:49.242Z,992.53
2018-12-03T01:21:49.216Z,992.45
2018-12-03T01:22:49.195Z,992.51
2018-12-03T01:23:49.177Z,992.47
2018-12-03T01:24:49.158Z,992.51
2018-12-03T01:25:49.143Z,992.55
2018-12-03T01:26:49.129Z,992.55
2018-12-03T01:27:49.107Z,992.65
2018-12-03T01:28:49.093Z,992.59
2018-12-03T01:29:49.074Z,992.71
2018-12-03T01:30:49.060Z,992.65
2018-12-03T01:31:49.040Z,992.69
2018-12-03T01:32:49.051Z,992.60
2018-12-03T01:33:49.017Z,992.60
2018-12-03T01:34:48.989Z,992.55
2018-12-03T01:35:48.975Z,992.59
2018-12-03T01:36:48.961Z,992.55
2018-12-03T01:37:48.943Z,992.63
2018-12-03T01:38:48.927Z,992.62
2018-12-03T01:39:48.969Z,992.61
2018-12-03T01:40:48.892Z,992.59
2018-12-03T01:41:48.873Z,992.56
2018-12-03T01:42:48.854Z,992.56
2018-12-03T01:43:48.839Z,992.52
2018-12-03T01:44:48.823Z,992.59
2018-12-03T01:45:48.806Z,992.56
2018-12-03T01:46:48.796Z,992.57
2018-12-03T01:47:48.770Z,992.50
2018-12-03T01:48:48.755Z,992.51
2018-12-03T01:49:48.738Z,992.56
2018-12-03T01:50:48.718Z,992.54
2018-12-03T01:51:48.710Z,992.56
2018-12-03T01:52:48.709Z,992.55
2018-12-03T01:53:48.668Z,992.59
2018-12-03T01:54:48.651Z,992.61
2018-12-03T01:55:48.638Z,992.57
2018-12-03T01:56:48.621Z,992.64
2018-12-03T01:57:48.603Z,992.65
2018-12-03T01:58:48.586Z,992.58
2018-12-03T01:59:48.569Z,992.63
2018-12-03T02:00:48.551Z,992.60
2018-12-03T02:01:48.533Z,992.57
2018-12-03T02:02:48.516Z,992.64
2018-12-03T02:03:48.501Z,992.60
2018-12-03T02:04:48.483Z,992.54
2018-12-03T02:05:48.466Z,992.60
2018-12-03T02:06:48.451Z,992.58
2018-12-03T02:07:48.431Z,992.56
2018-12-03T02:08:48.413Z,992.50
2018-12-03T02:09:48.400Z,992.55
2018-12-03T02:10:48.381Z,992.55
2018-12-03T02:11:48.364Z,992.60
2018-12-03T02:12:48.347Z,992.59
2018-12-03T02:13:48.332Z,992.61
2018-12-03T02:14:48.313Z,992.58
2018-12-03T02:15:48.298Z,992.59
2018-12-03T02:16:48.281Z,992.55
2018-12-03T02:17:48.267Z,992.56
2018-12-03T02:18:48.246Z,992.57
2018-12-03T02:19:48.236Z,992.56
2018-12-03T02:20:48.214Z,992.51
2018-12-03T02:21:48.194Z,992.52
2018-12-03T02:22:48.180Z,992.53
2018-12-03T02:23:48.163Z,992.46
2018-12-03T02:24:48.149Z,992.50
2018-12-03T02:25:48.129Z,992.55
2018-12-03T02:26:48.111Z,992.47
2018-12-03T02:27:48.096Z,992.46
2018-12-03T02:28:48.085Z,992.50
2018-12-03T02:29:48.061Z,992.48
2018-12-03T02:30:48.046Z,992.42
2018-12-03T02:31:48.032Z,992.35
2018-12-03T02:32:48.010Z,992.33
2018-12-03T02:33:48.000Z,992.32
2018-12-03T02:34:47.983Z,992.30
2018-12-03T02:35:47.966Z,992.33
2018-12-03T02:36:47.944Z,992.32
2018-12-03T02:37:47.931Z,992.35
2018-12-03T02:38:47.910Z,992.32
2018-12-03T02:39:47.893Z,992.30
2018-12-03T02:40:47.879Z,992.33
2018-12-03T02:41:47.860Z,992.34
2018-12-03T02:42:47.848Z,992.37
2018-12-03T02:43:47.826Z,992.34
2018-12-03T02:44:47.813Z,992.43
2018-12-03T02:45:47.794Z,992.40
2018-12-03T02:46:47.779Z,992.36
2018-12-03T02:47:47.763Z,992.28
2018-12-03T02:48:47.742Z,992.28
2018-12-03T02:49:47.729Z,992.25
2018-12-03T02:50:47.710Z,992.23
2018-12-03T02:51:47.693Z,992.26
2018-12-03T02:52:47.677Z,992.28
2018-12-03T02:53:47.656Z,992.22
2018-12-03T02:54:47.643Z,992.19
2018-12-03T02:55:47.627Z,992.18
2018-12-03T02:56:47.608Z,992.16
2018-12-03T02:57:47.594Z,992.15
2018-12-03T02:58:47.571Z,992.10
2018-12-03T02:59:47.556Z,992.07
2018-12-03T03:00:47.537Z,992.01
2018-12-03T03:01:47.556Z,992.01
2018-12-03T03:02:47.502Z,992.01
2018-12-03T03:03:47.488Z,991.97
2018-12-03T03:04:47.479Z,991.97
2018-12-03T03:05:47.455Z,991.94
2018-12-03T03:06:47.444Z,992.05
2018-12-03T03:07:47.425Z,992.02
2018-12-03T03:08:47.415Z,992.00
2018-12-03T03:09:47.389Z,992.12
2018-12-03T03:10:47.370Z,992.14
2018-12-03T03:11:47.354Z,992.17
2018-12-03T03:12:47.337Z,992.20
2018-12-03T03:13:47.322Z,992.14
2018-12-03T03:14:47.312Z,992.16
2018-12-03T03:15:47.287Z,991.97
2018-12-03T03:16:47.270Z,992.28
2018-12-03T03:17:47.255Z,992.12
2018-12-03T03:18:47.236Z,992.20
2018-12-03T03:19:47.218Z,992.11
2018-12-03T03:20:47.204Z,992.18
2018-12-03T03:21:47.188Z,992.09
2018-12-03T03:22:47.173Z,992.12
2018-12-03T03:23:47.153Z,992.11
2018-12-03T03:24:47.140Z,992.11
2018-12-03T03:25:47.119Z,992.14
2018-12-03T03:26:47.113Z,992.05
2018-12-03T03:27:47.085Z,992.03
2018-12-03T03:28:47.074Z,992.03
2018-12-03T03:29:47.059Z,992.08
2018-12-03T03:30:47.043Z,992.15
2018-12-03T03:31:47.025Z,992.10
2018-12-03T03:32:47.004Z,992.04
2018-12-03T03:33:46.991Z,992.09
2018-12-03T03:34:46.969Z,992.04
2018-12-03T03:35:46.950Z,992.04
2018-12-03T03:36:46.935Z,992.10
2018-12-03T03:37:46.922Z,992.10
2018-12-03T03:38:46.903Z,992.12
2018-12-03T03:39:46.888Z,992.15
2018-12-03T03:40:46.867Z,992.10
2018-12-03T03:41:46.897Z,992.12
2018-12-03T03:42:46.835Z,992.15
2018-12-03T03:43:46.816Z,992.33
2018-12-03T03:44:46.821Z,992.25
2018-12-03T03:45:46.793Z,992.19
2018-12-03T03:46:46.766Z,992.21
2018-12-03T03:47:46.751Z,992.19
2018-12-03T03:48:46.737Z,992.21
2018-12-03T03:49:46.716Z,992.35
2018-12-03T03:50:46.698Z,992.29
2018-12-03T03:51:46.682Z,992.31
2018-12-03T03:52:46.664Z,992.28
2018-12-03T03:53:46.650Z,992.34
2018-12-03T03:54:46.629Z,992.37
2018-12-03T03:55:46.614Z,992.44
2018-12-03T03:56:46.598Z,992.33
2018-12-03T03:57:46.587Z,992.37
2018-12-03T03:58:46.564Z,992.41
2018-12-03T03:59:46.545Z,992.45
2018-12-03T04:00:46.530Z,992.40
2018-12-03T04:01:46.515Z,992.43
2018-12-03T04:02:46.496Z,992.42
2018-12-03T04:03:46.480Z,992.39
2018-12-03T04:04:46.468Z,992.40
2018-12-03T04:05:46.447Z,992.41
2018-12-03T04:06:46.428Z,992.43
2018-12-03T04:07:46.460Z,992.44
2018-12-03T04:08:46.397Z,992.39
2018-12-03T04:09:46.378Z,992.31
2018-12-03T04:10:46.367Z,992.26
2018-12-03T04:11:46.347Z,992.25
2018-12-03T04:12:46.327Z,992.20
2018-12-03T04:13:46.311Z,992.07
2018-12-03T04:14:46.296Z,991.85
2018-12-03T04:15:46.280Z,992.05
2018-12-03T04:16:46.258Z,992.31
2018-12-03T04:17:46.246Z,992.15
2018-12-03T04:18:46.223Z,992.07
2018-12-03T04:19:46.209Z,992.13
2018-12-03T04:20:46.194Z,992.08
2018-12-03T04:21:46.171Z,992.12
2018-12-03T04:22:46.162Z,992.23
2018-12-03T04:23:46.137Z,992.20
2018-12-03T04:24:46.125Z,992.17
2018-12-03T04:25:46.106Z,992.15
2018-12-03T04:26:46.089Z,992.15
2018-12-03T04:27:46.072Z,992.17
2018-12-03T04:28:46.055Z,992.11
2018-12-03T04:29:46.040Z,992.19
2018-12-03T04:30:46.021Z,992.16
2018-12-03T04:31:46.003Z,992.19
2018-12-03T04:32:45.995Z,992.22
2018-12-03T04:33:45.969Z,992.19
2018-12-03T04:34:45.951Z,992.21
2018-12-03T04:35:45.937Z,992.21
2018-12-03T04:36:45.937Z,992.21
2018-12-03T04:37:45.906Z,992.24
2018-12-03T04:38:45.882Z,992.24
2018-12-03T04:39:45.872Z,992.22
2018-12-03T04:40:45.855Z,992.20
2018-12-03T04:41:45.834Z,992.20
2018-12-03T04:42:45.817Z,992.15
2018-12-03T04:43:45.799Z,992.14
2018-12-03T04:44:45.782Z,992.17
2018-12-03T04:45:45.772Z,992.17
2018-12-03T04:46:45.753Z,992.15
2018-12-03T04:47:45.732Z,992.13
2018-12-03T04:48:45.713Z,992.15
2018-12-03T04:49:45.702Z,992.15
2018-12-03T04:50:45.680Z,992.15
2018-12-03T04:51:45.662Z,992.16
2018-12-03T04:52:45.648Z,992.24
2018-12-03T04:53:45.632Z,992.27
2018-12-03T04:54:45.615Z,992.25
2018-12-03T04:55:45.596Z,992.17
2018-12-03T04:56:45.581Z,992.17
2018-12-03T04:57:45.562Z,992.19
2018-12-03T04:58:45.545Z,992.13
2018-12-03T04:59:45.535Z,992.14
2018-12-03T05:00:45.515Z,992.18
2018-12-03T05:01:45.494Z,992.21
2018-12-03T05:02:45.475Z,992.15
2018-12-03T05:03:45.459Z,992.22
2018-12-03T05:04:45.446Z,992.20
2018-12-03T05:05:45.424Z,992.25
2018-12-03T05:06:45.413Z,992.28
2018-12-03T05:07:45.390Z,992.26
2018-12-03T05:08:45.377Z,992.26
2018-12-03T05:09:45.362Z,992.25
2018-12-03T05:10:45.341Z,992.27
2018-12-03T05:11:45.324Z,992.25
2018-12-03T05:12:45.312Z,992.29
2018-12-03T05:13:45.293Z,992.24
2018-12-03T05:14:45.275Z,992.30
2018-12-03T05:15:45.258Z,992.31
2018-12-03T05:16:45.238Z,992.34
2018-12-03T05:17:45.226Z,992.34
2018-12-03T05:18:45.203Z,992.37
2018-12-03T05:19:45.190Z,992.33
2018-12-03T05:20:45.172Z,992.35
2018-12-03T05:21:45.155Z,992.38
2018-12-03T05:22:45.133Z,992.38
2018-12-03T05:23:45.115Z,992.41
2018-12-03T05:24:45.099Z,992.40
2018-12-03T05:25:45.086Z,992.42
2018-12-03T05:26:45.069Z,992.38
2018-12-03T05:27:45.047Z,992.40
2018-12-03T05:28:45.030Z,992.42
2018-12-03T05:29:45.014Z,992.47
2018-12-03T05:30:45.001Z,992.42
2018-12-03T05:31:44.981Z,992.47
2018-12-03T05:32:44.964Z,992.45
2018-12-03T05:33:44.946Z,992.45
2018-12-03T05:34:44.928Z,992.42
2018-12-03T05:35:44.912Z,992.45
2018-12-03T05:36:44.896Z,992.43
2018-12-03T05:37:44.881Z,992.54
2018-12-03T05:38:44.866Z,992.49
2018-12-03T05:39:44.849Z,992.52
2018-12-03T05:40:44.826Z,992.46
2018-12-03T05:41:44.812Z,992.49
2018-12-03T05:42:44.792Z,992.46
2018-12-03T05:43:44.773Z,992.48
2018-12-03T05:44:44.760Z,992.51
2018-12-03T05:45:44.743Z,992.47
2018-12-03T05:46:44.729Z,992.45
2018-12-03T05:47:44.701Z,992.47
2018-12-03T05:48:44.689Z,992.50
2018-12-03T05:49:44.669Z,992.53
2018-12-03T05:50:44.654Z,992.46
2018-12-03T05:51:44.640Z,992.50
2018-12-03T05:52:44.622Z,992.48
2018-12-03T05:53:44.602Z,992.52
2018-12-03T05:54:44.585Z,992.47
2018-12-03T05:55:44.569Z,992.48
2018-12-03T05:56:44.551Z,992.52
2018-12-03T05:57:44.533Z,992.52
2018-12-03T05:58:44.515Z,992.50
2018-12-03T05:59:44.503Z,992.54
2018-12-03T06:00:44.486Z,992.55
2018-12-03T06:01:44.466Z,992.51
2018-12-03T06:02:44.447Z,992.52
2018-12-03T06:03:44.431Z,992.54
2018-12-03T06:04:44.414Z,992.49
2018-12-03T06:05:44.398Z,992.54
2018-12-03T06:06:44.381Z,992.61
2018-12-03T06:07:44.361Z,992.60
2018-12-03T06:08:44.353Z,992.66
2018-12-03T06:09:44.332Z,992.65
2018-12-03T06:10:44.311Z,992.71
2018-12-03T06:11:44.298Z,992.74
2018-12-03T06:12:44.279Z,992.76
2018-12-03T06:13:44.270Z,992.71
2018-12-03T06:14:44.246Z,992.70
2018-12-03T06:15:44.226Z,992.57
2018-12-03T06:16:44.210Z,992.54
2018-12-03T06:17:44.230Z,992.63
2018-12-03T06:18:44.176Z,992.62
2018-12-03T06:19:44.156Z,992.67
2018-12-03T06:20:44.139Z,992.66
2018-12-03T06:21:44.126Z,992.66
2018-12-03T06:22:44.104Z,992.63
2018-12-03T06:23:44.088Z,992.69
2018-12-03T06:24:44.083Z,992.70
2018-12-03T06:25:44.052Z,992.78
2018-12-03T06:26:44.038Z,992.76
2018-12-03T06:27:44.026Z,992.83
2018-12-03T06:28:44.005Z,992.81
2018-12-03T06:29:43.992Z,992.82
2018-12-03T06:30:43.971Z,992.88
2018-12-03T06:31:43.957Z,992.75
2018-12-03T06:32:43.934Z,992.78
2018-12-03T06:33:43.921Z,992.92
2018-12-03T06:34:43.905Z,992.80
2018-12-03T06:35:43.889Z,992.75
2018-12-03T06:36:43.864Z,992.73
2018-12-03T06:37:43.846Z,992.73
2018-12-03T06:38:43.839Z,992.72
2018-12-03T06:39:43.820Z,992.72
2018-12-03T06:40:43.807Z,992.76
2018-12-03T06:41:43.779Z,992.74
2018-12-03T06:42:43.759Z,992.79
2018-12-03T06:43:43.746Z,992.78
2018-12-03T06:44:43.726Z,992.79
2018-12-03T06:45:43.709Z,992.80
2018-12-03T06:46:43.693Z,992.83
2018-12-03T06:47:43.677Z,992.81
2018-12-03T06:48:43.656Z,992.82
2018-12-03T06:49:43.640Z,992.81
2018-12-03T06:50:43.622Z,992.84
2018-12-03T06:51:43.607Z,992.78
2018-12-03T06:52:43.587Z,992.79
2018-12-03T06:53:43.571Z,992.78
2018-12-03T06:54:43.552Z,992.82
2018-12-03T06:55:43.539Z,992.86
2018-12-03T06:56:43.521Z,992.84
2018-12-03T06:57:43.505Z,992.77
2018-12-03T06:58:43.501Z,992.82
2018-12-03T06:59:43.468Z,992.82
2018-12-03T07:00:43.450Z,992.80
2018-12-03T07:01:43.436Z,992.83
2018-12-03T07:02:43.419Z,992.79
2018-12-03T07:03:43.402Z,992.75
2018-12-03T07:04:43.381Z,992.82
2018-12-03T07:05:43.363Z,992.79
2018-12-03T07:06:43.346Z,992.85
2018-12-03T07:07:43.338Z,992.77
2018-12-03T07:08:43.313Z,992.83
2018-12-03T07:09:43.296Z,992.75
2018-12-03T07:10:43.281Z,992.77
2018-12-03T07:11:43.277Z,992.76
2018-12-03T07:12:43.242Z,992.82
2018-12-03T07:13:43.227Z,992.82
2018-12-03T07:14:43.208Z,992.81
2018-12-03T07:15:43.211Z,992.82
2018-12-03T07:16:43.174Z,992.81
2018-12-03T07:17:43.160Z,992.85
2018-12-03T07:18:43.141Z,992.89
2018-12-03T07:19:43.130Z,992.94
2018-12-03T07:20:43.108Z,992.93
2018-12-03T07:21:43.089Z,992.96
2018-12-03T07:22:43.070Z,992.99
2018-12-03T07:23:43.060Z,992.99
2018-12-03T07:24:43.038Z,992.96
2018-12-03T07:25:43.021Z,993.02
2018-12-03T07:26:43.010Z,993.11
2018-12-03T07:27:42.988Z,993.08
2018-12-03T07:28:42.968Z,993.10
2018-12-03T07:29:42.950Z,993.12
2018-12-03T07:30:42.936Z,993.16
2018-12-03T07:31:42.925Z,993.10
2018-12-03T07:32:42.905Z,993.20
2018-12-03T07:33:42.885Z,993.21
2018-12-03T07:34:42.864Z,993.13
2018-12-03T07:35:42.850Z,993.13
2018-12-03T07:36:42.831Z,993.18
2018-12-03T07:37:42.812Z,993.16
2018-12-03T07:38:42.795Z,993.11
2018-12-03T07:39:42.777Z,993.11
2018-12-03T07:40:42.759Z,993.15
2018-12-03T07:41:42.745Z,993.07
2018-12-03T07:42:42.724Z,993.13
2018-12-03T07:43:42.706Z,993.13
2018-12-03T07:44:42.692Z,993.15
2018-12-03T07:45:42.672Z,993.14
2018-12-03T07:46:42.654Z,993.18
2018-12-03T07:47:42.637Z,993.19
2018-12-03T07:48:42.622Z,993.22
2018-12-03T07:49:42.602Z,993.25
2018-12-03T07:50:42.586Z,993.22
2018-12-03T07:51:42.568Z,993.21
2018-12-03T07:52:42.551Z,993.23
2018-12-03T07:53:42.537Z,993.33
2018-12-03T07:54:42.520Z,993.30
2018-12-03T07:55:42.500Z,993.34
2018-12-03T07:56:42.482Z,993.37
2018-12-03T07:57:42.474Z,993.22
2018-12-03T07:58:42.450Z,993.29
2018-12-03T07:59:42.433Z,993.38
2018-12-03T08:00:42.414Z,993.34
2018-12-03T08:01:42.399Z,993.36
2018-12-03T08:02:42.378Z,993.33
2018-12-03T08:03:42.361Z,993.35
2018-12-03T08:04:42.347Z,993.40
2018-12-03T08:05:42.330Z,993.40
2018-12-03T08:06:42.309Z,993.45
2018-12-03T08:07:42.292Z,993.47
2018-12-03T08:08:42.276Z,993.47
2018-12-03T08:09:42.257Z,993.50
2018-12-03T08:10:42.240Z,993.47
2018-12-03T08:11:42.223Z,993.51
2018-12-03T08:12:42.211Z,993.46
2018-12-03T08:13:42.196Z,993.48
2018-12-03T08:14:42.172Z,993.45
2018-12-03T08:15:42.156Z,993.45
2018-12-03T08:16:42.140Z,993.44
2018-12-03T08:17:42.130Z,993.44
2018-12-03T08:18:42.102Z,993.48
2018-12-03T08:19:42.088Z,993.47
2018-12-03T08:20:42.074Z,993.51
2018-12-03T08:21:42.050Z,993.46
2018-12-03T08:22:42.038Z,993.47
2018-12-03T08:23:42.019Z,993.54
2018-12-03T08:24:42.003Z,993.60
2018-12-03T08:25:41.986Z,993.61
2018-12-03T08:26:41.974Z,993.56
2018-12-03T08:27:41.963Z,993.53
2018-12-03T08:28:41.940Z,993.70
2018-12-03T08:29:41.920Z,993.71
2018-12-03T08:30:41.905Z,993.57
2018-12-03T08:31:41.891Z,993.72
2018-12-03T08:32:41.878Z,993.72
2018-12-03T08:33:41.859Z,993.81
2018-12-03T08:34:41.843Z,993.73
2018-12-03T08:35:41.829Z,993.91
2018-12-03T08:36:41.817Z,993.95
2018-12-03T08:37:41.805Z,993.95
2018-12-03T08:38:41.793Z,993.99
2018-12-03T08:39:41.773Z,994.09
2018-12-03T08:40:41.767Z,993.93
2018-12-03T08:41:41.773Z,994.01
2018-12-03T08:42:41.735Z,994.00
2018-12-03T08:43:41.731Z,993.72
2018-12-03T08:44:41.720Z,994.01
2018-12-03T08:45:41.697Z,994.10
2018-12-03T08:46:41.684Z,994.03
2018-12-03T08:47:41.677Z,994.04
2018-12-03T08:48:41.663Z,994.16
2018-12-03T08:49:41.650Z,994.17
2018-12-03T08:50:41.637Z,994.13
2018-12-03T08:51:41.625Z,994.13
2018-12-03T08:52:41.614Z,994.06
2018-12-03T08:53:41.607Z,994.05
2018-12-03T08:54:41.590Z,994.10
2018-12-03T08:55:41.581Z,994.04
2018-12-03T08:56:41.571Z,994.02
2018-12-03T08:57:41.559Z,994.14
2018-12-03T08:58:41.553Z,994.12
2018-12-03T08:59:41.538Z,994.02
2018-12-03T09:00:41.534Z,994.19
2018-12-03T09:01:41.520Z,994.18
2018-12-03T09:02:41.517Z,994.13
2018-12-03T09:03:41.499Z,993.98
2018-12-03T09:04:41.490Z,993.99
2018-12-03T09:05:41.490Z,994.02
2018-12-03T09:06:41.474Z,994.24
2018-12-03T09:07:41.461Z,993.99
2018-12-03T09:08:41.447Z,994.00
2018-12-03T09:09:41.435Z,994.03
2018-12-03T09:10:41.425Z,993.99
2018-12-03T09:11:41.416Z,994.03
2018-12-03T09:12:41.404Z,994.09
2018-12-03T09:13:41.394Z,994.43
2018-12-03T09:14:41.377Z,994.27
2018-12-03T09:15:41.373Z,994.35
2018-12-03T09:16:41.362Z,994.08
2018-12-03T09:17:41.361Z,994.33
2018-12-03T09:18:41.339Z,994.41
2018-12-03T09:19:41.325Z,994.19
2018-12-03T09:20:41.317Z,994.50
2018-12-03T09:21:41.307Z,994.46
2018-12-03T09:22:41.295Z,994.38
2018-12-03T09:23:41.281Z,993.81
2018-12-03T09:24:41.270Z,993.83
2018-12-03T09:25:41.258Z,993.94
2018-12-03T09:26:41.245Z,993.89
2018-12-03T09:27:41.236Z,993.97
2018-12-03T09:28:41.240Z,993.79
2018-12-03T09:29:41.216Z,993.93
2018-12-03T09:30:41.203Z,993.86
2018-12-03T09:31:41.188Z,993.86
2018-12-03T09:32:41.177Z,993.80
2018-12-03T09:33:41.167Z,993.80
2018-12-03T09:34:41.148Z,993.84
2018-12-03T09:35:41.149Z,993.85
2018-12-03T09:36:41.124Z,993.78
2018-12-03T09:37:41.185Z,993.86
2018-12-03T09:38:41.108Z,993.81
2018-12-03T09:39:41.083Z,993.87
2018-12-03T09:40:41.071Z,993.82
2018-12-03T09:41:41.054Z,993.85
2018-12-03T09:42:41.043Z,993.91
2018-12-03T09:43:41.027Z,994.29
2018-12-03T09:44:41.018Z,994.04
2018-12-03T09:45:41.002Z,993.97
2018-12-03T09:46:40.981Z,993.99
2018-12-03T09:47:41.000Z,993.99
2018-12-03T09:48:40.959Z,993.96
2018-12-03T09:49:40.946Z,993.96
2018-12-03T09:50:40.931Z,994.10
2018-12-03T09:51:40.911Z,993.90
2018-12-03T09:52:40.898Z,993.93
2018-12-03T09:53:40.879Z,993.97
2018-12-03T09:54:40.866Z,993.97
2018-12-03T09:55:40.857Z,993.95
2018-12-03T09:56:40.839Z,993.96
2018-12-03T09:57:40.821Z,993.97
2018-12-03T09:58:40.806Z,993.97
2018-12-03T09:59:40.795Z,994.00
2018-12-03T10:00:40.782Z,994.00
2018-12-03T10:01:40.771Z,994.07
2018-12-03T10:02:40.758Z,993.95
2018-12-03T10:03:40.751Z,994.04
2018-12-03T10:04:40.728Z,994.06
2018-12-03T10:05:40.702Z,994.02
2018-12-03T10:06:40.686Z,994.00
2018-12-03T10:07:40.676Z,993.92
2018-12-03T10:08:40.659Z,993.89
2018-12-03T10:09:40.646Z,993.90
2018-12-03T10:10:40.630Z,993.93
2018-12-03T10:11:40.612Z,993.94
2018-12-03T10:12:40.602Z,993.91
2018-12-03T10:13:40.587Z,994.14
2018-12-03T10:14:40.575Z,993.87
2018-12-03T10:15:40.554Z,993.93
2018-12-03T10:16:40.693Z,994.23
2018-12-03T10:17:40.522Z,993.91
2018-12-03T10:18:40.508Z,994.17
2018-12-03T10:19:40.493Z,993.87
2018-12-03T10:20:42.294Z,993.85
2018-12-03T10:21:40.464Z,993.96
2018-12-03T10:22:40.451Z,994.05
2018-12-03T10:23:40.432Z,993.82
2018-12-03T10:24:40.416Z,993.77
2018-12-03T10:25:40.401Z,993.90
2018-12-03T10:26:40.386Z,993.74
2018-12-03T10:27:40.371Z,993.80
2018-12-03T10:28:40.355Z,993.82
2018-12-03T10:29:40.347Z,993.80
2018-12-03T10:30:40.326Z,993.81
2018-12-03T10:31:40.308Z,993.68
2018-12-03T10:32:40.299Z,993.77
2018-12-03T10:33:40.279Z,993.78
2018-12-03T10:34:40.283Z,993.78
2018-12-03T10:35:40.252Z,993.73
2018-12-03T10:36:40.238Z,993.76
2018-12-03T10:37:40.223Z,993.71
2018-12-03T10:38:40.204Z,993.73
2018-12-03T10:39:40.194Z,993.75
2018-12-03T10:40:40.176Z,993.72
2018-12-03T10:41:40.163Z,993.73
2018-12-03T10:42:40.193Z,993.73
2018-12-03T10:43:40.128Z,994.07
2018-12-03T10:44:40.119Z,993.73
2018-12-03T10:45:40.098Z,993.68
2018-12-03T10:46:40.085Z,993.69
2018-12-03T10:47:40.067Z,993.75
2018-12-03T10:48:40.051Z,993.73
2018-12-03T10:49:40.039Z,993.74
2018-12-03T10:50:40.031Z,993.63
2018-12-03T10:51:40.010Z,993.64
2018-12-03T10:52:39.995Z,993.61
2018-12-03T10:53:39.975Z,993.61
2018-12-03T10:54:39.966Z,993.54
2018-12-03T10:55:39.950Z,993.62
2018-12-03T10:56:39.933Z,993.56
2018-12-03T10:57:39.915Z,993.52
2018-12-03T10:58:39.902Z,993.57
2018-12-03T10:59:39.886Z,993.58
2018-12-03T11:00:39.869Z,993.53
2018-12-03T11:01:39.862Z,993.51
2018-12-03T11:02:39.837Z,993.48
2018-12-03T11:03:39.828Z,993.55
2018-12-03T11:04:39.807Z,993.57
2018-12-03T11:05:39.791Z,993.54
2018-12-03T11:06:39.774Z,993.54
2018-12-03T11:07:39.759Z,993.69
2018-12-03T11:08:39.744Z,993.56
2018-12-03T11:09:39.729Z,993.53
2018-12-03T11:10:39.718Z,993.48
2018-12-03T11:11:39.703Z,993.43
2018-12-03T11:12:39.686Z,993.44
2018-12-03T11:13:39.665Z,993.46
2018-12-03T11:14:39.655Z,993.43
2018-12-03T11:15:39.637Z,993.38
2018-12-03T11:16:39.618Z,993.38
2018-12-03T11:17:39.603Z,993.43
2018-12-03T11:18:39.583Z,993.39
2018-12-03T11:19:39.569Z,993.37
2018-12-03T11:20:39.553Z,993.42
2018-12-03T11:21:39.537Z,993.38
2018-12-03T11:22:39.522Z,993.59
2018-12-03T11:23:39.510Z,993.47
2018-12-03T11:24:39.489Z,993.46
2018-12-03T11:25:39.480Z,993.64
2018-12-03T11:26:39.457Z,993.48
2018-12-03T11:27:39.442Z,993.44
2018-12-03T11:28:39.425Z,993.37
2018-12-03T11:29:39.413Z,993.38
2018-12-03T11:30:39.403Z,993.48
2018-12-03T11:31:39.390Z,993.41
2018-12-03T11:32:39.364Z,993.44
2018-12-03T11:33:39.352Z,993.34
2018-12-03T11:34:39.333Z,993.36
2018-12-03T11:35:39.324Z,993.31
2018-12-03T11:36:39.308Z,993.31
2018-12-03T11:37:39.293Z,993.29
2018-12-03T11:38:39.275Z,993.31
2018-12-03T11:39:39.263Z,993.37
2018-12-03T11:40:39.249Z,993.31
2018-12-03T11:41:39.226Z,993.27
2018-12-03T11:42:39.221Z,993.24
2018-12-03T11:43:39.196Z,993.27
2018-12-03T11:44:39.179Z,993.26
2018-12-03T11:45:39.169Z,993.26
2018-12-03T11:46:39.149Z,993.32
2018-12-03T11:47:39.137Z,993.33
2018-12-03T11:48:39.127Z,993.23
2018-12-03T11:49:39.103Z,993.31
2018-12-03T11:50:39.095Z,993.38
2018-12-03T11:51:39.070Z,993.27
2018-12-03T11:52:39.056Z,993.32
2018-12-03T11:53:39.047Z,993.32
2018-12-03T11:54:39.031Z,993.28
2018-12-03T11:55:39.011Z,993.26
2018-12-03T11:56:38.998Z,993.19
2018-12-03T11:57:38.985Z,993.22
2018-12-03T11:58:38.968Z,993.18
2018-12-03T11:59:38.950Z,993.24
2018-12-03T12:00:38.935Z,993.19
2018-12-03T12:01:38.925Z,993.20
2018-12-03T12:02:38.904Z,993.17
2018-12-03T12:03:42.712Z,993.20
2018-12-03T12:04:38.875Z,993.21
2018-12-03T12:05:38.864Z,993.18
2018-12-03T12:06:38.847Z,993.14
2018-12-03T12:07:42.338Z,993.17
2018-12-03T12:08:38.827Z,993.16
2018-12-03T12:09:38.800Z,993.08
2018-12-03T12:10:38.785Z,993.16
2018-12-03T12:11:38.769Z,993.15
2018-12-03T12:12:38.751Z,993.11
2018-12-03T12:13:38.826Z,993.19
2018-12-03T12:14:38.719Z,993.16
2018-12-03T12:15:38.704Z,993.15
2018-12-03T12:16:38.691Z,993.13
2018-12-03T12:17:38.682Z,993.02
2018-12-03T12:18:38.659Z,993.04
2018-12-03T12:19:38.642Z,993.05
2018-12-03T12:20:38.667Z,993.01
2018-12-03T12:21:38.613Z,993.09
2018-12-03T12:22:38.596Z,992.99
2018-12-03T12:23:38.581Z,993.00
2018-12-03T12:24:38.574Z,992.93
2018-12-03T12:25:38.553Z,993.06
2018-12-03T12:26:38.544Z,992.99
2018-12-03T12:27:38.526Z,993.04
2018-12-03T12:28:38.511Z,992.96